Terminal Aerodrome Forecast
Issued by NWS

Home | Current Version | Previous Version | Text Only | Print | Product List | Glossary On
Versions: 1 2 3 4 5 6 7 8 9 10 11 12 13 14 15 16 17 18 19 20 21 22
000
FTUS42 KGSP 241439 AAB
TAFGMU
TAF AMD
KGMU 241439Z 2415/2512 VRB03KT P6SM BKN008
     FM241600 18005KT P6SM SCT040 SCT250
     FM250000 18005KT P6SM SCT200
     FM250700 20007KT P6SM BKN060
     FM250900 20007KT P6SM BKN030
     FM251100 21008KT 5SM BR BKN025=

USA.gov is the U.S. government's official web portal to all federal, state and local government web resources and services.